sensor_id;sensor_type;location;lat;lon;timestamp;P1;durP1;ratioP1;P2;durP2;ratioP2
60851;SDS011;48553;50.766;2.900;2024-01-15T00:02:07;7.25;;;2.83;;
60851;SDS011;48553;50.766;2.900;2024-01-15T00:05:08;6.70;;;2.72;;
60851;SDS011;48553;50.766;2.900;2024-01-15T00:08:09;6.25;;;2.72;;
60851;SDS011;48553;50.766;2.900;2024-01-15T00:11:09;6.78;;;3.10;;
60851;SDS011;48553;50.766;2.900;2024-01-15T00:14:09;7.45;;;2.95;;
60851;SDS011;48553;50.766;2.900;2024-01-15T00:17:10;7.57;;;2.88;;
60851;SDS011;48553;50.766;2.900;2024-01-15T00:20:10;6.18;;;3.15;;
60851;SDS011;48553;50.766;2.900;2024-01-15T00:23:11;6.45;;;3.10;;
60851;SDS011;48553;50.766;2.900;2024-01-15T00:26:12;5.30;;;3.00;;
60851;SDS011;48553;50.766;2.900;2024-01-15T00:29:13;6.63;;;2.63;;
60851;SDS011;48553;50.766;2.900;2024-01-15T00:32:13;6.93;;;3.03;;
60851;SDS011;48553;50.766;2.900;2024-01-15T00:35:13;8.00;;;3.20;;
60851;SDS011;48553;50.766;2.900;2024-01-15T00:38:14;8.57;;;2.95;;
60851;SDS011;48553;50.766;2.900;2024-01-15T00:41:14;8.15;;;3.10;;
60851;SDS011;48553;50.766;2.900;2024-01-15T00:44:15;7.30;;;2.92;;
60851;SDS011;48553;50.766;2.900;2024-01-15T00:47:17;7.93;;;2.95;;
60851;SDS011;48553;50.766;2.900;2024-01-15T00:50:18;5.72;;;3.17;;
60851;SDS011;48553;50.766;2.900;2024-01-15T00:53:19;6.28;;;3.13;;
60851;SDS011;48553;50.766;2.900;2024-01-15T00:56:20;6.40;;;3.22;;
60851;SDS011;48553;50.766;2.900;2024-01-15T00:59:20;7.22;;;3.03;;
60851;SDS011;48553;50.766;2.900;2024-01-15T01:02:21;7.07;;;3.28;;
60851;SDS011;48553;50.766;2.900;2024-01-15T01:05:21;6.47;;;2.97;;
60851;SDS011;48553;50.766;2.900;2024-01-15T01:08:21;7.75;;;3.38;;
60851;SDS011;48553;50.766;2.900;2024-01-15T01:11:22;6.30;;;2.78;;
60851;SDS011;48553;50.766;2.900;2024-01-15T01:14:22;6.40;;;3.17;;
60851;SDS011;48553;50.766;2.900;2024-01-15T01:17:22;7.78;;;3.13;;
60851;SDS011;48553;50.766;2.900;2024-01-15T01:20:23;7.40;;;3.30;;
60851;SDS011;48553;50.766;2.900;2024-01-15T01:23:23;6.70;;;3.42;;
60851;SDS011;48553;50.766;2.900;2024-01-15T01:26:24;8.88;;;3.30;;
60851;SDS011;48553;50.766;2.900;2024-01-15T01:29:24;6.97;;;3.40;;
60851;SDS011;48553;50.766;2.900;2024-01-15T01:32:26;6.53;;;3.28;;
60851;SDS011;48553;50.766;2.900;2024-01-15T01:35:26;7.00;;;3.38;;
60851;SDS011;48553;50.766;2.900;2024-01-15T01:38:27;9.32;;;3.47;;
60851;SDS011;48553;50.766;2.900;2024-01-15T01:41:27;7.75;;;3.30;;
60851;SDS011;48553;50.766;2.900;2024-01-15T01:44:28;6.47;;;3.70;;
60851;SDS011;48553;50.766;2.900;2024-01-15T01:47:28;6.07;;;3.17;;
60851;SDS011;48553;50.766;2.900;2024-01-15T01:50:29;8.30;;;3.92;;
60851;SDS011;48553;50.766;2.900;2024-01-15T01:53:32;8.93;;;3.63;;
60851;SDS011;48553;50.766;2.900;2024-01-15T01:56:35;7.40;;;4.10;;
60851;SDS011;48553;50.766;2.900;2024-01-15T01:59:35;11.07;;;4.28;;
60851;SDS011;48553;50.766;2.900;2024-01-15T02:02:36;8.68;;;4.18;;
60851;SDS011;48553;50.766;2.900;2024-01-15T02:05:37;10.60;;;4.07;;
60851;SDS011;48553;50.766;2.900;2024-01-15T02:08:39;9.10;;;4.05;;
60851;SDS011;48553;50.766;2.900;2024-01-15T02:11:46;10.00;;;4.20;;
60851;SDS011;48553;50.766;2.900;2024-01-15T02:14:47;8.48;;;3.92;;
60851;SDS011;48553;50.766;2.900;2024-01-15T02:17:57;9.07;;;3.85;;
60851;SDS011;48553;50.766;2.900;2024-01-15T02:21:01;11.45;;;4.28;;
60851;SDS011;48553;50.766;2.900;2024-01-15T02:24:02;9.13;;;4.30;;
60851;SDS011;48553;50.766;2.900;2024-01-15T02:27:03;8.55;;;4.30;;
60851;SDS011;48553;50.766;2.900;2024-01-15T02:30:03;8.27;;;4.03;;
60851;SDS011;48553;50.766;2.900;2024-01-15T02:33:06;9.38;;;4.00;;
60851;SDS011;48553;50.766;2.900;2024-01-15T02:36:07;7.88;;;3.60;;
60851;SDS011;48553;50.766;2.900;2024-01-15T02:39:08;8.38;;;3.50;;
60851;SDS011;48553;50.766;2.900;2024-01-15T02:42:08;7.20;;;3.00;;
60851;SDS011;48553;50.766;2.900;2024-01-15T02:45:09;8.98;;;3.60;;
60851;SDS011;48553;50.766;2.900;2024-01-15T02:48:09;8.00;;;3.08;;
60851;SDS011;48553;50.766;2.900;2024-01-15T02:51:10;6.85;;;2.85;;
60851;SDS011;48553;50.766;2.900;2024-01-15T02:54:10;6.72;;;2.75;;
60851;SDS011;48553;50.766;2.900;2024-01-15T02:57:10;7.38;;;2.60;;
60851;SDS011;48553;50.766;2.900;2024-01-15T03:00:11;7.35;;;2.72;;
60851;SDS011;48553;50.766;2.900;2024-01-15T03:03:12;6.50;;;2.28;;
60851;SDS011;48553;50.766;2.900;2024-01-15T03:06:12;5.55;;;2.10;;
60851;SDS011;48553;50.766;2.900;2024-01-15T03:09:13;6.60;;;2.30;;
60851;SDS011;48553;50.766;2.900;2024-01-15T03:12:13;4.10;;;1.85;;
60851;SDS011;48553;50.766;2.900;2024-01-15T03:15:14;5.28;;;1.85;;
60851;SDS011;48553;50.766;2.900;2024-01-15T03:18:14;4.28;;;1.55;;
60851;SDS011;48553;50.766;2.900;2024-01-15T03:21:14;3.03;;;1.63;;
60851;SDS011;48553;50.766;2.900;2024-01-15T03:24:15;4.38;;;1.40;;
60851;SDS011;48553;50.766;2.900;2024-01-15T03:27:15;4.97;;;1.60;;
60851;SDS011;48553;50.766;2.900;2024-01-15T03:30:16;4.85;;;1.30;;
60851;SDS011;48553;50.766;2.900;2024-01-15T03:33:16;5.50;;;1.60;;
60851;SDS011;48553;50.766;2.900;2024-01-15T03:36:17;2.88;;;1.67;;
60851;SDS011;48553;50.766;2.900;2024-01-15T03:39:17;3.88;;;1.35;;
60851;SDS011;48553;50.766;2.900;2024-01-15T03:42:18;3.85;;;1.48;;
60851;SDS011;48553;50.766;2.900;2024-01-15T03:45:18;2.53;;;1.23;;
60851;SDS011;48553;50.766;2.900;2024-01-15T03:48:19;3.38;;;1.20;;
60851;SDS011;48553;50.766;2.900;2024-01-15T03:51:19;3.22;;;1.40;;
60851;SDS011;48553;50.766;2.900;2024-01-15T03:54:20;7.82;;;1.50;;
60851;SDS011;48553;50.766;2.900;2024-01-15T03:57:20;4.97;;;1.25;;
60851;SDS011;48553;50.766;2.900;2024-01-15T04:00:21;6.55;;;1.30;;
60851;SDS011;48553;50.766;2.900;2024-01-15T04:03:22;5.82;;;1.30;;
60851;SDS011;48553;50.766;2.900;2024-01-15T04:06:22;3.03;;;1.40;;
60851;SDS011;48553;50.766;2.900;2024-01-15T04:09:23;3.53;;;1.10;;
60851;SDS011;48553;50.766;2.900;2024-01-15T04:12:23;3.22;;;1.30;;
60851;SDS011;48553;50.766;2.900;2024-01-15T04:15:24;5.05;;;1.40;;
60851;SDS011;48553;50.766;2.900;2024-01-15T04:18:24;4.20;;;1.30;;
60851;SDS011;48553;50.766;2.900;2024-01-15T04:21:24;2.45;;;1.10;;
60851;SDS011;48553;50.766;2.900;2024-01-15T04:24:25;4.13;;;1.15;;
60851;SDS011;48553;50.766;2.900;2024-01-15T04:27:25;5.35;;;1.00;;
60851;SDS011;48553;50.766;2.900;2024-01-15T04:30:26;4.43;;;1.10;;
60851;SDS011;48553;50.766;2.900;2024-01-15T04:33:26;2.63;;;0.98;;
60851;SDS011;48553;50.766;2.900;2024-01-15T04:36:27;5.25;;;1.08;;
60851;SDS011;48553;50.766;2.900;2024-01-15T04:39:27;4.65;;;1.30;;
60851;SDS011;48553;50.766;2.900;2024-01-15T04:42:27;5.45;;;1.52;;
60851;SDS011;48553;50.766;2.900;2024-01-15T04:45:28;3.83;;;1.50;;
60851;SDS011;48553;50.766;2.900;2024-01-15T04:48:29;7.28;;;1.63;;
60851;SDS011;48553;50.766;2.900;2024-01-15T04:51:30;3.78;;;1.30;;
60851;SDS011;48553;50.766;2.900;2024-01-15T04:54:30;4.88;;;1.15;;
60851;SDS011;48553;50.766;2.900;2024-01-15T04:57:30;3.55;;;1.25;;
60851;SDS011;48553;50.766;2.900;2024-01-15T05:00:31;6.00;;;1.48;;
60851;SDS011;48553;50.766;2.900;2024-01-15T05:03:31;5.30;;;1.40;;
60851;SDS011;48553;50.766;2.900;2024-01-15T05:06:32;3.83;;;1.13;;
60851;SDS011;48553;50.766;2.900;2024-01-15T05:09:32;4.65;;;1.50;;
60851;SDS011;48553;50.766;2.900;2024-01-15T05:12:32;4.15;;;1.50;;
60851;SDS011;48553;50.766;2.900;2024-01-15T05:15:33;3.83;;;1.30;;
60851;SDS011;48553;50.766;2.900;2024-01-15T05:18:33;3.80;;;1.40;;
60851;SDS011;48553;50.766;2.900;2024-01-15T05:21:34;4.38;;;1.45;;
60851;SDS011;48553;50.766;2.900;2024-01-15T05:24:34;2.80;;;1.55;;
60851;SDS011;48553;50.766;2.900;2024-01-15T05:27:34;5.63;;;1.40;;
60851;SDS011;48553;50.766;2.900;2024-01-15T05:30:35;7.65;;;1.73;;
60851;SDS011;48553;50.766;2.900;2024-01-15T05:33:35;5.97;;;1.52;;
60851;SDS011;48553;50.766;2.900;2024-01-15T05:36:36;5.53;;;1.52;;
60851;SDS011;48553;50.766;2.900;2024-01-15T05:39:36;5.88;;;1.75;;
60851;SDS011;48553;50.766;2.900;2024-01-15T05:42:37;5.95;;;1.42;;
60851;SDS011;48553;50.766;2.900;2024-01-15T05:45:38;5.45;;;1.50;;
60851;SDS011;48553;50.766;2.900;2024-01-15T05:48:38;8.35;;;1.75;;
60851;SDS011;48553;50.766;2.900;2024-01-15T05:51:39;3.63;;;1.27;;
60851;SDS011;48553;50.766;2.900;2024-01-15T05:54:39;5.65;;;1.38;;
60851;SDS011;48553;50.766;2.900;2024-01-15T05:57:40;3.45;;;1.13;;
60851;SDS011;48553;50.766;2.900;2024-01-15T06:00:40;4.10;;;1.45;;
60851;SDS011;48553;50.766;2.900;2024-01-15T06:03:40;6.60;;;1.50;;
60851;SDS011;48553;50.766;2.900;2024-01-15T06:06:41;3.60;;;1.40;;
60851;SDS011;48553;50.766;2.900;2024-01-15T06:09:41;3.90;;;1.52;;
60851;SDS011;48553;50.766;2.900;2024-01-15T06:12:43;3.80;;;1.10;;
60851;SDS011;48553;50.766;2.900;2024-01-15T06:15:44;5.32;;;1.40;;
60851;SDS011;48553;50.766;2.900;2024-01-15T06:18:44;3.45;;;1.25;;
60851;SDS011;48553;50.766;2.900;2024-01-15T06:21:44;4.45;;;1.30;;
60851;SDS011;48553;50.766;2.900;2024-01-15T06:24:45;4.47;;;1.30;;
60851;SDS011;48553;50.766;2.900;2024-01-15T06:27:46;2.45;;;1.02;;
60851;SDS011;48553;50.766;2.900;2024-01-15T06:30:46;3.35;;;1.40;;
60851;SDS011;48553;50.766;2.900;2024-01-15T06:33:46;3.88;;;1.13;;
60851;SDS011;48553;50.766;2.900;2024-01-15T06:36:48;4.32;;;1.38;;
60851;SDS011;48553;50.766;2.900;2024-01-15T06:39:48;5.00;;;1.33;;
60851;SDS011;48553;50.766;2.900;2024-01-15T06:42:49;5.15;;;1.70;;
60851;SDS011;48553;50.766;2.900;2024-01-15T06:45:49;3.65;;;1.50;;
60851;SDS011;48553;50.766;2.900;2024-01-15T06:48:50;3.60;;;1.23;;
60851;SDS011;48553;50.766;2.900;2024-01-15T06:51:50;5.95;;;1.30;;
60851;SDS011;48553;50.766;2.900;2024-01-15T06:54:51;4.05;;;1.35;;
60851;SDS011;48553;50.766;2.900;2024-01-15T06:57:51;6.20;;;1.40;;
60851;SDS011;48553;50.766;2.900;2024-01-15T07:00:52;5.93;;;1.40;;
60851;SDS011;48553;50.766;2.900;2024-01-15T07:03:52;6.55;;;1.30;;
60851;SDS011;48553;50.766;2.900;2024-01-15T07:06:52;4.07;;;1.23;;
60851;SDS011;48553;50.766;2.900;2024-01-15T07:09:54;6.90;;;1.42;;
60851;SDS011;48553;50.766;2.900;2024-01-15T07:12:54;3.80;;;1.20;;
60851;SDS011;48553;50.766;2.900;2024-01-15T07:15:55;4.38;;;1.10;;
60851;SDS011;48553;50.766;2.900;2024-01-15T07:18:55;8.38;;;1.55;;
60851;SDS011;48553;50.766;2.900;2024-01-15T07:21:56;3.75;;;1.35;;
60851;SDS011;48553;50.766;2.900;2024-01-15T07:24:56;3.08;;;1.25;;
60851;SDS011;48553;50.766;2.900;2024-01-15T07:27:56;3.55;;;1.38;;
60851;SDS011;48553;50.766;2.900;2024-01-15T07:30:57;5.65;;;1.60;;
60851;SDS011;48553;50.766;2.900;2024-01-15T07:33:57;3.50;;;1.50;;
60851;SDS011;48553;50.766;2.900;2024-01-15T07:36:58;5.38;;;1.70;;
60851;SDS011;48553;50.766;2.900;2024-01-15T07:39:58;6.65;;;1.70;;
60851;SDS011;48553;50.766;2.900;2024-01-15T07:42:59;4.57;;;1.60;;
60851;SDS011;48553;50.766;2.900;2024-01-15T07:46:00;5.20;;;1.52;;
60851;SDS011;48553;50.766;2.900;2024-01-15T07:49:00;3.90;;;1.65;;
60851;SDS011;48553;50.766;2.900;2024-01-15T07:52:00;3.55;;;1.80;;
60851;SDS011;48553;50.766;2.900;2024-01-15T07:55:01;3.58;;;1.30;;
60851;SDS011;48553;50.766;2.900;2024-01-15T07:58:03;3.15;;;1.42;;
60851;SDS011;48553;50.766;2.900;2024-01-15T08:01:04;2.83;;;1.60;;
60851;SDS011;48553;50.766;2.900;2024-01-15T08:04:05;6.43;;;1.70;;
60851;SDS011;48553;50.766;2.900;2024-01-15T08:07:06;6.45;;;1.73;;
60851;SDS011;48553;50.766;2.900;2024-01-15T08:10:07;4.97;;;1.90;;
60851;SDS011;48553;50.766;2.900;2024-01-15T08:13:08;4.82;;;1.70;;
60851;SDS011;48553;50.766;2.900;2024-01-15T08:16:09;5.93;;;1.83;;
60851;SDS011;48553;50.766;2.900;2024-01-15T08:19:09;3.92;;;1.65;;
60851;SDS011;48553;50.766;2.900;2024-01-15T08:22:10;6.88;;;1.90;;
60851;SDS011;48553;50.766;2.900;2024-01-15T08:25:10;5.28;;;1.45;;
60851;SDS011;48553;50.766;2.900;2024-01-15T08:28:11;4.82;;;1.65;;
60851;SDS011;48553;50.766;2.900;2024-01-15T08:31:12;5.35;;;1.90;;
60851;SDS011;48553;50.766;2.900;2024-01-15T08:34:12;8.15;;;1.77;;
60851;SDS011;48553;50.766;2.900;2024-01-15T08:37:13;4.43;;;1.50;;
60851;SDS011;48553;50.766;2.900;2024-01-15T08:40:13;7.18;;;1.60;;
60851;SDS011;48553;50.766;2.900;2024-01-15T08:43:14;7.75;;;2.03;;
60851;SDS011;48553;50.766;2.900;2024-01-15T08:46:14;4.13;;;1.73;;
60851;SDS011;48553;50.766;2.900;2024-01-15T08:49:14;8.43;;;1.73;;
60851;SDS011;48553;50.766;2.900;2024-01-15T08:52:15;5.43;;;2.00;;
60851;SDS011;48553;50.766;2.900;2024-01-15T08:55:15;7.35;;;1.92;;
60851;SDS011;48553;50.766;2.900;2024-01-15T08:58:16;6.03;;;1.50;;
60851;SDS011;48553;50.766;2.900;2024-01-15T09:01:16;6.80;;;1.95;;
60851;SDS011;48553;50.766;2.900;2024-01-15T09:04:17;6.47;;;1.90;;
60851;SDS011;48553;50.766;2.900;2024-01-15T09:07:17;7.30;;;1.77;;
60851;SDS011;48553;50.766;2.900;2024-01-15T09:10:18;4.32;;;1.58;;
60851;SDS011;48553;50.766;2.900;2024-01-15T09:13:19;4.88;;;1.50;;
60851;SDS011;48553;50.766;2.900;2024-01-15T09:16:19;6.45;;;1.60;;
60851;SDS011;48553;50.766;2.900;2024-01-15T09:19:20;5.07;;;1.65;;
60851;SDS011;48553;50.766;2.900;2024-01-15T09:22:20;5.43;;;1.70;;
60851;SDS011;48553;50.766;2.900;2024-01-15T09:25:21;4.72;;;1.63;;
60851;SDS011;48553;50.766;2.900;2024-01-15T09:28:21;7.40;;;2.22;;
60851;SDS011;48553;50.766;2.900;2024-01-15T09:31:23;7.07;;;1.80;;
60851;SDS011;48553;50.766;2.900;2024-01-15T09:34:23;5.63;;;1.70;;
60851;SDS011;48553;50.766;2.900;2024-01-15T09:37:23;8.32;;;1.73;;
60851;SDS011;48553;50.766;2.900;2024-01-15T09:40:24;6.10;;;1.30;;
60851;SDS011;48553;50.766;2.900;2024-01-15T09:43:27;4.28;;;1.33;;
60851;SDS011;48553;50.766;2.900;2024-01-15T09:46:28;4.25;;;1.20;;
60851;SDS011;48553;50.766;2.900;2024-01-15T09:49:28;5.88;;;1.30;;
60851;SDS011;48553;50.766;2.900;2024-01-15T09:52:30;6.70;;;1.42;;
60851;SDS011;48553;50.766;2.900;2024-01-15T09:55:30;8.02;;;1.20;;
60851;SDS011;48553;50.766;2.900;2024-01-15T09:58:32;5.20;;;1.27;;
60851;SDS011;48553;50.766;2.900;2024-01-15T10:01:34;3.78;;;1.10;;
60851;SDS011;48553;50.766;2.900;2024-01-15T10:04:36;3.72;;;1.20;;
60851;SDS011;48553;50.766;2.900;2024-01-15T10:07:37;5.45;;;1.20;;
60851;SDS011;48553;50.766;2.900;2024-01-15T10:10:38;6.10;;;1.13;;
60851;SDS011;48553;50.766;2.900;2024-01-15T10:13:39;4.25;;;1.10;;
60851;SDS011;48553;50.766;2.900;2024-01-15T10:16:43;6.07;;;1.10;;
60851;SDS011;48553;50.766;2.900;2024-01-15T10:19:46;6.70;;;1.20;;
60851;SDS011;48553;50.766;2.900;2024-01-15T10:22:47;3.60;;;1.20;;
60851;SDS011;48553;50.766;2.900;2024-01-15T10:25:47;4.43;;;1.40;;
60851;SDS011;48553;50.766;2.900;2024-01-15T10:28:50;3.90;;;1.30;;
60851;SDS011;48553;50.766;2.900;2024-01-15T10:31:51;4.95;;;1.20;;
60851;SDS011;48553;50.766;2.900;2024-01-15T10:34:52;6.10;;;1.67;;
60851;SDS011;48553;50.766;2.900;2024-01-15T10:37:52;5.32;;;1.30;;
60851;SDS011;48553;50.766;2.900;2024-01-15T10:40:53;5.50;;;1.45;;
60851;SDS011;48553;50.766;2.900;2024-01-15T10:43:55;5.72;;;1.45;;
60851;SDS011;48553;50.766;2.900;2024-01-15T10:46:55;4.13;;;1.20;;
60851;SDS011;48553;50.766;2.900;2024-01-15T10:49:57;3.95;;;1.13;;
60851;SDS011;48553;50.766;2.900;2024-01-15T10:52:58;8.07;;;1.40;;
60851;SDS011;48553;50.766;2.900;2024-01-15T10:55:58;5.88;;;1.15;;
60851;SDS011;48553;50.766;2.900;2024-01-15T10:58:59;5.20;;;0.95;;
60851;SDS011;48553;50.766;2.900;2024-01-15T11:02:00;6.00;;;1.00;;
60851;SDS011;48553;50.766;2.900;2024-01-15T11:05:00;3.85;;;0.70;;
60851;SDS011;48553;50.766;2.900;2024-01-15T11:08:01;2.90;;;0.75;;
60851;SDS011;48553;50.766;2.900;2024-01-15T11:11:01;4.05;;;0.90;;
60851;SDS011;48553;50.766;2.900;2024-01-15T11:14:01;3.42;;;0.60;;
60851;SDS011;48553;50.766;2.900;2024-01-15T11:17:02;4.13;;;0.70;;
60851;SDS011;48553;50.766;2.900;2024-01-15T11:20:05;4.35;;;0.80;;
60851;SDS011;48553;50.766;2.900;2024-01-15T11:23:06;5.38;;;0.82;;
60851;SDS011;48553;50.766;2.900;2024-01-15T11:26:30;3.47;;;0.70;;
60851;SDS011;48553;50.766;2.900;2024-01-15T11:29:33;3.10;;;0.90;;
60851;SDS011;48553;50.766;2.900;2024-01-15T11:32:35;4.07;;;1.00;;
60851;SDS011;48553;50.766;2.900;2024-01-15T11:35:48;4.00;;;1.00;;
60851;SDS011;48553;50.766;2.900;2024-01-15T11:38:50;5.60;;;1.02;;
60851;SDS011;48553;50.766;2.900;2024-01-15T11:41:50;4.45;;;0.70;;
60851;SDS011;48553;50.766;2.900;2024-01-15T11:44:51;4.60;;;0.80;;
60851;SDS011;48553;50.766;2.900;2024-01-15T11:51:14;2.92;;;0.70;;
60851;SDS011;48553;50.766;2.900;2024-01-15T11:54:18;4.78;;;0.80;;
60851;SDS011;48553;50.766;2.900;2024-01-15T11:57:25;3.67;;;0.98;;
60851;SDS011;48553;50.766;2.900;2024-01-15T12:00:33;4.32;;;0.90;;
60851;SDS011;48553;50.766;2.900;2024-01-15T12:06:44;7.13;;;1.20;;
60851;SDS011;48553;50.766;2.900;2024-01-15T12:09:45;3.38;;;0.93;;
60851;SDS011;48553;50.766;2.900;2024-01-15T12:15:59;5.25;;;0.90;;
60851;SDS011;48553;50.766;2.900;2024-01-15T12:19:03;3.28;;;1.02;;
60851;SDS011;48553;50.766;2.900;2024-01-15T12:22:03;7.40;;;1.00;;
60851;SDS011;48553;50.766;2.900;2024-01-15T12:25:04;6.10;;;0.88;;
60851;SDS011;48553;50.766;2.900;2024-01-15T12:28:05;2.55;;;0.75;;
60851;SDS011;48553;50.766;2.900;2024-01-15T12:31:06;5.13;;;0.85;;
60851;SDS011;48553;50.766;2.900;2024-01-15T12:34:06;3.88;;;0.80;;
60851;SDS011;48553;50.766;2.900;2024-01-15T12:37:07;3.45;;;0.95;;
60851;SDS011;48553;50.766;2.900;2024-01-15T12:40:08;3.58;;;0.95;;
60851;SDS011;48553;50.766;2.900;2024-01-15T12:43:09;3.83;;;0.80;;
60851;SDS011;48553;50.766;2.900;2024-01-15T12:46:10;5.15;;;1.05;;
60851;SDS011;48553;50.766;2.900;2024-01-15T12:49:10;6.32;;;0.98;;
60851;SDS011;48553;50.766;2.900;2024-01-15T12:52:13;8.95;;;1.17;;
60851;SDS011;48553;50.766;2.900;2024-01-15T12:55:13;6.40;;;1.13;;
60851;SDS011;48553;50.766;2.900;2024-01-15T12:58:14;4.05;;;0.98;;
60851;SDS011;48553;50.766;2.900;2024-01-15T13:01:15;5.57;;;1.13;;
60851;SDS011;48553;50.766;2.900;2024-01-15T13:04:21;5.95;;;1.00;;
60851;SDS011;48553;50.766;2.900;2024-01-15T13:07:23;4.10;;;1.10;;
60851;SDS011;48553;50.766;2.900;2024-01-15T13:10:23;5.32;;;0.85;;
60851;SDS011;48553;50.766;2.900;2024-01-15T13:13:24;2.42;;;0.60;;
60851;SDS011;48553;50.766;2.900;2024-01-15T13:16:25;4.22;;;0.90;;
60851;SDS011;48553;50.766;2.900;2024-01-15T13:19:29;4.65;;;0.88;;
60851;SDS011;48553;50.766;2.900;2024-01-15T13:22:29;3.70;;;0.88;;
60851;SDS011;48553;50.766;2.900;2024-01-15T13:25:32;3.42;;;1.05;;
60851;SDS011;48553;50.766;2.900;2024-01-15T13:28:35;4.40;;;1.00;;
60851;SDS011;48553;50.766;2.900;2024-01-15T13:31:35;1.88;;;0.70;;
60851;SDS011;48553;50.766;2.900;2024-01-15T13:34:36;3.80;;;0.80;;
60851;SDS011;48553;50.766;2.900;2024-01-15T13:37:36;7.22;;;0.98;;
60851;SDS011;48553;50.766;2.900;2024-01-15T13:40:38;6.25;;;0.93;;
60851;SDS011;48553;50.766;2.900;2024-01-15T13:43:38;5.20;;;0.88;;
60851;SDS011;48553;50.766;2.900;2024-01-15T13:46:38;2.38;;;0.80;;
60851;SDS011;48553;50.766;2.900;2024-01-15T13:49:39;3.10;;;0.80;;
60851;SDS011;48553;50.766;2.900;2024-01-15T13:52:39;2.58;;;1.08;;
60851;SDS011;48553;50.766;2.900;2024-01-15T13:55:40;4.93;;;0.95;;
60851;SDS011;48553;50.766;2.900;2024-01-15T13:58:41;5.90;;;1.30;;
60851;SDS011;48553;50.766;2.900;2024-01-15T14:01:42;4.65;;;1.23;;
60851;SDS011;48553;50.766;2.900;2024-01-15T14:04:42;8.15;;;1.30;;
60851;SDS011;48553;50.766;2.900;2024-01-15T14:07:43;7.43;;;1.00;;
60851;SDS011;48553;50.766;2.900;2024-01-15T14:10:43;7.40;;;1.15;;
60851;SDS011;48553;50.766;2.900;2024-01-15T14:13:45;7.25;;;0.85;;
60851;SDS011;48553;50.766;2.900;2024-01-15T14:16:45;6.35;;;0.88;;
60851;SDS011;48553;50.766;2.900;2024-01-15T14:19:46;2.60;;;0.73;;
60851;SDS011;48553;50.766;2.900;2024-01-15T14:22:47;7.70;;;1.17;;
60851;SDS011;48553;50.766;2.900;2024-01-15T14:25:48;4.05;;;0.95;;
60851;SDS011;48553;50.766;2.900;2024-01-15T14:28:48;3.53;;;1.20;;
60851;SDS011;48553;50.766;2.900;2024-01-15T14:31:49;5.50;;;0.88;;
60851;SDS011;48553;50.766;2.900;2024-01-15T14:34:49;6.53;;;1.10;;
60851;SDS011;48553;50.766;2.900;2024-01-15T14:37:49;5.18;;;0.95;;
60851;SDS011;48553;50.766;2.900;2024-01-15T14:40:50;3.17;;;0.65;;
60851;SDS011;48553;50.766;2.900;2024-01-15T14:43:50;3.10;;;0.98;;
60851;SDS011;48553;50.766;2.900;2024-01-15T14:46:51;4.45;;;1.27;;
60851;SDS011;48553;50.766;2.900;2024-01-15T14:49:51;7.15;;;1.20;;
60851;SDS011;48553;50.766;2.900;2024-01-15T14:52:52;10.55;;;1.40;;
60851;SDS011;48553;50.766;2.900;2024-01-15T14:55:52;4.05;;;0.90;;
60851;SDS011;48553;50.766;2.900;2024-01-15T14:58:54;4.70;;;1.02;;
60851;SDS011;48553;50.766;2.900;2024-01-15T15:01:54;4.75;;;1.20;;
60851;SDS011;48553;50.766;2.900;2024-01-15T15:04:56;7.95;;;1.27;;
60851;SDS011;48553;50.766;2.900;2024-01-15T15:07:57;5.00;;;1.48;;
60851;SDS011;48553;50.766;2.900;2024-01-15T15:10:57;6.50;;;1.55;;
60851;SDS011;48553;50.766;2.900;2024-01-15T15:13:58;5.13;;;1.50;;
60851;SDS011;48553;50.766;2.900;2024-01-15T15:17:00;5.40;;;1.30;;
60851;SDS011;48553;50.766;2.900;2024-01-15T15:20:00;7.43;;;1.20;;
60851;SDS011;48553;50.766;2.900;2024-01-15T15:23:02;8.30;;;1.40;;
60851;SDS011;48553;50.766;2.900;2024-01-15T15:26:05;3.30;;;0.98;;
60851;SDS011;48553;50.766;2.900;2024-01-15T15:29:06;4.93;;;1.20;;
60851;SDS011;48553;50.766;2.900;2024-01-15T15:32:06;5.18;;;1.15;;
60851;SDS011;48553;50.766;2.900;2024-01-15T15:35:07;6.65;;;1.10;;
60851;SDS011;48553;50.766;2.900;2024-01-15T15:38:07;8.43;;;1.35;;
60851;SDS011;48553;50.766;2.900;2024-01-15T15:41:08;7.25;;;1.60;;
60851;SDS011;48553;50.766;2.900;2024-01-15T15:44:08;6.75;;;1.58;;
60851;SDS011;48553;50.766;2.900;2024-01-15T15:47:09;3.97;;;1.60;;
60851;SDS011;48553;50.766;2.900;2024-01-15T15:50:10;5.93;;;1.80;;
60851;SDS011;48553;50.766;2.900;2024-01-15T15:53:11;6.97;;;1.73;;
60851;SDS011;48553;50.766;2.900;2024-01-15T15:56:12;7.30;;;1.45;;
60851;SDS011;48553;50.766;2.900;2024-01-15T15:59:12;7.28;;;1.30;;
60851;SDS011;48553;50.766;2.900;2024-01-15T16:02:13;9.73;;;1.42;;
60851;SDS011;48553;50.766;2.900;2024-01-15T16:05:14;7.30;;;1.50;;
60851;SDS011;48553;50.766;2.900;2024-01-15T16:08:14;7.45;;;1.35;;
60851;SDS011;48553;50.766;2.900;2024-01-15T16:11:14;4.97;;;1.13;;
60851;SDS011;48553;50.766;2.900;2024-01-15T16:14:15;5.38;;;1.50;;
60851;SDS011;48553;50.766;2.900;2024-01-15T16:17:16;7.53;;;1.50;;
60851;SDS011;48553;50.766;2.900;2024-01-15T16:20:17;7.00;;;1.63;;
60851;SDS011;48553;50.766;2.900;2024-01-15T16:23:18;5.57;;;1.48;;
60851;SDS011;48553;50.766;2.900;2024-01-15T16:26:19;4.95;;;1.58;;
60851;SDS011;48553;50.766;2.900;2024-01-15T16:29:19;6.25;;;1.58;;
60851;SDS011;48553;50.766;2.900;2024-01-15T16:32:20;10.02;;;1.83;;
60851;SDS011;48553;50.766;2.900;2024-01-15T16:35:20;5.22;;;1.77;;
60851;SDS011;48553;50.766;2.900;2024-01-15T16:38:20;6.63;;;2.28;;
60851;SDS011;48553;50.766;2.900;2024-01-15T16:41:21;10.52;;;2.30;;
60851;SDS011;48553;50.766;2.900;2024-01-15T16:44:21;7.85;;;2.88;;
60851;SDS011;48553;50.766;2.900;2024-01-15T16:47:22;11.65;;;3.20;;
60851;SDS011;48553;50.766;2.900;2024-01-15T16:50:22;8.82;;;2.83;;
60851;SDS011;48553;50.766;2.900;2024-01-15T16:53:23;6.65;;;2.65;;
60851;SDS011;48553;50.766;2.900;2024-01-15T16:56:23;6.03;;;2.17;;
60851;SDS011;48553;50.766;2.900;2024-01-15T16:59:24;5.80;;;1.92;;
60851;SDS011;48553;50.766;2.900;2024-01-15T17:02:24;5.80;;;1.88;;
60851;SDS011;48553;50.766;2.900;2024-01-15T17:05:25;6.57;;;1.85;;
60851;SDS011;48553;50.766;2.900;2024-01-15T17:08:25;7.72;;;2.03;;
60851;SDS011;48553;50.766;2.900;2024-01-15T17:11:26;6.53;;;1.58;;
60851;SDS011;48553;50.766;2.900;2024-01-15T17:14:27;7.20;;;2.03;;
60851;SDS011;48553;50.766;2.900;2024-01-15T17:17:28;13.93;;;3.03;;
60851;SDS011;48553;50.766;2.900;2024-01-15T17:20:28;9.63;;;3.08;;
60851;SDS011;48553;50.766;2.900;2024-01-15T17:23:29;9.07;;;3.10;;
60851;SDS011;48553;50.766;2.900;2024-01-15T17:26:29;13.35;;;3.28;;
60851;SDS011;48553;50.766;2.900;2024-01-15T17:29:30;11.07;;;3.15;;
60851;SDS011;48553;50.766;2.900;2024-01-15T17:32:30;10.88;;;3.40;;
60851;SDS011;48553;50.766;2.900;2024-01-15T17:35:31;10.18;;;3.38;;
60851;SDS011;48553;50.766;2.900;2024-01-15T17:38:31;10.35;;;3.10;;
60851;SDS011;48553;50.766;2.900;2024-01-15T17:41:33;8.38;;;2.63;;
60851;SDS011;48553;50.766;2.900;2024-01-15T17:44:33;9.65;;;3.17;;
60851;SDS011;48553;50.766;2.900;2024-01-15T17:47:34;13.68;;;3.13;;
60851;SDS011;48553;50.766;2.900;2024-01-15T17:50:34;11.52;;;2.65;;
60851;SDS011;48553;50.766;2.900;2024-01-15T17:53:36;7.38;;;2.15;;
60851;SDS011;48553;50.766;2.900;2024-01-15T17:56:37;6.50;;;2.70;;
60851;SDS011;48553;50.766;2.900;2024-01-15T17:59:38;5.53;;;2.15;;
60851;SDS011;48553;50.766;2.900;2024-01-15T18:02:39;9.25;;;2.70;;
60851;SDS011;48553;50.766;2.900;2024-01-15T18:05:39;7.05;;;2.22;;
60851;SDS011;48553;50.766;2.900;2024-01-15T18:08:40;6.68;;;2.40;;
60851;SDS011;48553;50.766;2.900;2024-01-15T18:11:40;5.38;;;2.20;;
60851;SDS011;48553;50.766;2.900;2024-01-15T18:14:41;5.32;;;2.08;;
60851;SDS011;48553;50.766;2.900;2024-01-15T18:17:41;9.25;;;2.42;;
60851;SDS011;48553;50.766;2.900;2024-01-15T18:20:42;7.63;;;2.30;;